Time;durP1;ratioP1;P1;durP2;ratioP2;P2;SDS_P1;SDS_P2;PMS_P1;PMS_P2;Temp;Humidity;BMP_temperature;BMP_pressure;BME280_temperature;BME280_humidity;BME280_pressure;Samples;Min_cycle;Max_cycle;Signal;HPM_P1;HPM_P2
2022/05/24 00:02:07;;;;;;;16.05;10.25;;;;;;;-148.88;100.00;74351.56;5038158;28;20025;-79
2022/05/24 00:04:32;;;;;;;12.50;7.75;;;;;;;-148.88;99.85;74359.69;5018685;28;20479;-78
2022/05/24 00:06:58;;;;;;;11.02;8.00;;;;;;;-148.88;99.74;74373.91;5017861;28;20031;-80
2022/05/24 00:09:27;;;;;;;10.02;6.82;;;;;;;-148.88;99.45;74382.03;5035651;28;20058;-79
2022/05/24 00:11:53;;;;;;;9.70;6.88;;;;;;;-148.88;99.39;74386.09;5036326;28;20021;-78
2022/05/24 00:15:19;;;;;;;11.70;7.20;;;;;;;-148.88;99.36;74400.31;5018077;28;20032;-78
2022/05/24 00:17:05;;;;;;;13.30;7.68;;;;;;;-148.88;100.00;74410.47;5036651;28;20083;-79
2022/05/24 00:19:30;;;;;;;9.77;7.65;;;;;;;-148.88;100.00;74420.59;5018559;28;20021;-79
2022/05/24 00:21:55;;;;;;;11.70;8.07;;;;;;;-148.88;100.00;74436.84;5037017;28;20379;-79
2022/05/24 00:24:21;;;;;;;10.70;7.72;;;;;;;-148.88;100.00;74434.81;5037590;28;20060;-79
2022/05/24 00:26:47;;;;;;;11.65;8.40;;;;;;;-148.88;100.00;74457.16;5019100;28;20045;-78
2022/05/24 00:29:12;;;;;;;12.02;8.52;;;;;;;-148.88;100.00;74463.25;5019533;28;20021;-79
2022/05/24 00:31:37;;;;;;;12.13;7.80;;;;;;;-148.88;100.00;74471.38;5019598;28;20037;-78
2022/05/24 00:34:02;;;;;;;13.57;7.45;;;;;;;-148.88;99.93;74473.41;5019776;28;20036;-79
2022/05/24 00:36:28;;;;;;;12.40;7.82;;;;;;;-148.88;100.00;74481.53;5018694;28;20017;-78
2022/05/24 00:38:53;;;;;;;9.55;7.40;;;;;;;-148.88;100.00;74475.44;5037477;28;20037;-79
2022/05/24 00:41:26;;;;;;;12.98;8.30;;;;;;;-148.88;100.00;74469.34;5018087;28;20025;-78
2022/05/24 00:44:15;;;;;;;11.63;8.13;;;;;;;-148.88;100.00;74467.31;5035474;28;20024;-78
2022/05/24 00:47:03;;;;;;;11.13;7.75;;;;;;;-148.88;100.00;74477.47;5017794;28;20030;-78
2022/05/24 00:49:34;;;;;;;10.43;7.70;;;;;;;-148.88;100.00;74467.31;5044631;22;20052;-85
2022/05/24 00:52:15;;;;;;;11.27;8.00;;;;;;;-148.88;100.00;74467.31;5019940;28;20040;-83
2022/05/24 00:54:42;;;;;;;15.25;8.52;;;;;;;-148.88;100.00;74477.47;5037021;28;20040;-84
2022/05/24 00:57:18;;;;;;;12.15;8.65;;;;;;;-148.88;100.00;74485.59;5019581;28;20083;-86
2022/05/24 01:00:02;;;;;;;10.38;7.80;;;;;;;-148.88;99.28;74497.78;5035925;28;20034;-84
2022/05/24 01:02:28;;;;;;;;;;;;;;;-148.88;99.10;74487.63;5021720;28;20021;-83
2022/05/24 01:04:53;;;;;;;11.43;7.70;;;;;;;-148.88;98.96;74489.66;5037254;28;19916;-84
2022/05/24 01:07:18;;;;;;;10.82;7.50;;;;;;;-148.88;99.13;74497.78;5019098;28;20559;-85
2022/05/24 01:09:54;;;;;;;14.48;9.02;;;;;;;-148.88;99.09;74497.78;5018366;28;20025;-83
2022/05/24 01:12:28;;;;;;;16.25;9.60;;;;;;;-148.88;98.66;74497.78;5036044;28;20375;-83
2022/05/24 01:14:58;;;;;;;12.02;8.43;;;;;;;-148.88;99.02;74499.81;5035277;28;20048;-83
2022/05/24 01:17:23;;;;;;;14.43;8.73;;;;;;;-148.88;98.31;74514.00;5016772;28;20100;-84
2022/05/24 01:19:49;;;;;;;11.35;8.63;;;;;;;-148.88;98.87;74499.81;5034387;28;20075;-85
2022/05/24 01:22:45;;;;;;;11.98;9.15;;;;;;;-148.88;99.09;74518.06;5016384;28;20049;-85
2022/05/24 01:25:25;;;;;;;15.43;10.02;;;;;;;-148.88;99.16;74518.06;5016925;28;20029;-84
2022/05/24 01:27:51;;;;;;;16.13;10.35;;;;;;;-148.88;99.18;74505.88;5017040;28;20021;-84
2022/05/24 01:30:16;;;;;;;15.80;11.55;;;;;;;-148.88;98.74;74505.88;5016444;28;20025;-85
2022/05/24 01:38:17;;;;;;;19.02;12.88;;;;;;;-148.88;98.83;74522.13;5037916;28;20033;-86
2022/05/24 01:40:43;;;;;;;18.95;13.60;;;;;;;-148.88;99.77;74522.13;5037989;28;20565;-85
2022/05/24 01:43:09;;;;;;;20.83;12.85;;;;;;;-148.88;100.00;74526.19;5038446;28;20025;-85
2022/05/24 01:45:39;;;;;;;22.20;13.45;;;;;;;-148.88;99.86;74520.09;5038053;28;20021;-85
2022/05/24 01:48:12;;;;;;;17.75;13.45;;;;;;;-148.88;99.53;74536.34;5019949;28;20100;-85
2022/05/24 01:50:43;;;;;;;17.33;12.38;;;;;;;-148.88;100.00;74530.25;5020006;28;20021;-84
2022/05/24 01:53:15;;;;;;;18.95;12.43;;;;;;;-148.88;99.75;74544.47;5019558;28;20018;-85
2022/05/24 01:55:47;;;;;;;22.38;13.80;;;;;;;-148.88;100.00;74562.75;5037688;28;20025;-83
2022/05/24 01:58:15;;;;;;;19.60;13.15;;;;;;;-148.88;100.00;74560.72;5020449;28;20580;-85
2022/05/24 02:00:46;;;;;;;19.08;13.85;;;;;;;-148.88;100.00;74564.78;5020450;28;20047;-85
2022/05/24 02:03:11;;;;;;;20.80;14.55;;;;;;;-148.88;100.00;74574.94;5037822;28;20040;-85
2022/05/24 02:05:39;;;;;;;20.80;14.38;;;;;;;-148.88;100.00;74581.03;5019372;28;20402;-85
2022/05/24 02:08:07;;;;;;;21.58;14.68;;;;;;;-148.88;100.00;74574.94;5037512;28;20026;-86
2022/05/24 02:10:43;;;;;;;22.98;15.02;;;;;;;-148.88;100.00;74572.91;5037148;28;20022;-83
2022/05/24 02:13:10;;;;;;;23.00;15.45;;;;;;;-148.88;100.00;74562.75;5019409;28;20108;-84
2022/05/24 02:15:40;;;;;;;19.73;14.32;;;;;;;-148.88;100.00;74566.81;5020202;28;20382;-85
2022/05/24 02:18:10;;;;;;;23.60;15.55;;;;;;;-148.88;100.00;74566.81;5036993;28;20104;-85
2022/05/24 02:20:39;;;;;;;22.42;15.48;;;;;;;-148.88;100.00;74570.88;5019387;28;20032;-85
2022/05/24 02:23:07;;;;;;;22.13;15.73;;;;;;;-148.88;100.00;74562.75;5036753;28;20029;-85
2022/05/24 02:25:53;;;;;;;24.33;16.33;;;;;;;-148.88;100.00;74566.81;5018795;28;20116;-83
2022/05/24 02:28:22;;;;;;;23.67;16.10;;;;;;;-148.88;100.00;74562.75;5036775;28;20490;-85
2022/05/24 02:30:51;;;;;;;24.98;17.52;;;;;;;-148.88;100.00;74560.72;5036354;28;20466;-83
2022/05/24 02:33:18;;;;;;;27.00;16.98;;;;;;;-148.88;100.00;74562.75;5019767;28;20043;-84
2022/05/24 02:35:44;;;;;;;27.17;17.48;;;;;;;-148.88;100.00;74562.75;5018667;28;20026;-85
2022/05/24 02:38:09;;;;;;;23.52;17.00;;;;;;;-148.88;100.00;74562.75;5018744;28;20152;-85
2022/05/24 02:43:19;;;;;;;26.35;16.60;;;;;;;-148.88;100.00;74546.50;5035643;28;20501;-85
2022/05/24 02:45:44;;;;;;;26.00;17.30;;;;;;;-148.88;100.00;74568.84;5036441;28;20522;-85
2022/05/24 02:48:10;;;;;;;26.02;18.38;;;;;;;-148.88;100.00;74560.72;5036075;28;20032;-86
2022/05/24 02:50:35;;;;;;;26.55;18.15;;;;;;;-148.88;100.00;74546.50;5036839;28;20367;-86
2022/05/24 02:53:04;;;;;;;28.25;19.13;;;;;;;-148.88;100.00;74554.63;5036481;28;20116;-84
2022/05/24 02:55:30;;;;;;;26.88;18.02;;;;;;;-148.88;100.00;74558.69;5036191;28;20098;-87
2022/05/24 02:58:06;;;;;;;31.80;20.25;;;;;;;-148.88;100.00;74566.81;5018989;28;20432;-88
2022/05/24 03:00:31;;;;;;;29.92;18.65;;;;;;;-148.88;100.00;74566.81;5018750;28;20470;-86
2022/05/24 03:02:57;;;;;;;30.48;20.05;;;;;;;-148.88;100.00;74564.78;5035997;28;20028;-84
2022/05/24 03:05:24;;;;;;;32.03;20.40;;;;;;;-148.88;100.00;74562.75;5035708;28;20439;-87
2022/05/24 03:10:34;;;;;;;31.38;20.75;;;;;;;-148.88;100.00;74566.81;5035667;28;20037;-87
2022/05/24 03:15:48;;;;;;;34.13;22.45;;;;;;;-148.88;100.00;74556.66;5036289;28;20036;-85
2022/05/24 03:18:17;;;;;;;34.17;23.25;;;;;;;-148.88;100.00;74554.63;5017633;28;20021;-85
2022/05/24 03:20:43;;;;;;;34.17;22.45;;;;;;;-148.88;100.00;74560.72;5018889;28;20045;-85
2022/05/24 03:23:27;;;;;;;36.55;23.13;;;;;;;-148.88;100.00;74562.75;5016926;28;20037;-88
2022/05/24 03:25:53;;;;;;;33.55;23.13;;;;;;;-148.88;100.00;74554.63;5017883;28;20471;-85
2022/05/24 03:28:20;;;;;;;35.45;24.48;;;;;;;-148.88;100.00;74558.69;5017600;28;20021;-88
2022/05/24 03:30:49;;;;;;;41.55;26.02;;;;;;;-148.88;100.00;74550.56;5016993;28;20116;-88
2022/05/24 03:33:41;;;;;;;38.85;24.33;;;;;;;-148.88;100.00;74548.53;5036980;28;20033;-84
2022/05/24 03:36:07;;;;;;;37.95;24.75;;;;;;;-148.88;100.00;74534.31;5010831;28;20087;-86
2022/05/24 03:38:33;;;;;;;34.22;24.75;;;;;;;-148.88;100.00;74528.22;5035377;28;20104;-84
2022/05/24 03:41:01;;;;;;;39.85;25.25;;;;;;;-148.88;100.00;74540.41;5017306;28;20486;-86
2022/05/24 03:43:27;;;;;;;42.60;25.23;;;;;;;-148.88;100.00;74538.38;5017913;28;20032;-86
2022/05/24 03:46:03;;;;;;;38.47;25.65;;;;;;;-148.88;100.00;74536.34;5017259;28;20394;-86
2022/05/24 03:48:29;;;;;;;38.08;25.02;;;;;;;-148.88;100.00;74538.38;5034923;28;20025;-85
2022/05/24 03:51:02;;;;;;;35.65;25.15;;;;;;;-148.88;100.00;74544.47;5017249;28;20025;-86
2022/05/24 03:53:27;;;;;;;38.75;26.70;;;;;;;-148.88;100.00;74544.47;5018239;28;20036;-87
2022/05/24 03:55:53;;;;;;;39.92;26.65;;;;;;;-148.88;100.00;74544.47;5034896;28;20033;-87
2022/05/24 03:58:19;;;;;;;37.70;26.52;;;;;;;-148.88;100.00;74540.41;5018039;28;20091;-86
2022/05/24 04:00:51;;;;;;;39.92;26.85;;;;;;;-148.88;100.00;74536.34;5034568;28;20390;-85
2022/05/24 04:03:23;;;;;;;45.63;29.63;;;;;;;-148.88;100.00;74536.34;5017778;28;20033;-87
2022/05/24 04:06:10;;;;;;;42.90;28.60;;;;;;;-148.88;100.00;74524.16;5016922;28;20033;-85
2022/05/24 04:08:56;;;;;;;45.25;28.38;;;;;;;-148.88;100.00;74518.06;5034533;28;20037;-86
2022/05/24 04:11:21;;;;;;;43.45;30.63;;;;;;;-148.88;100.00;74514.00;5034185;28;20040;-87
2022/05/24 04:13:46;;;;;;;45.60;30.83;;;;;;;-148.88;100.00;74526.19;5034624;28;20025;-85
2022/05/24 04:16:15;;;;;;;48.53;31.70;;;;;;;-148.88;100.00;74526.19;5016725;28;20037;-86
2022/05/24 04:18:41;;;;;;;44.83;30.40;;;;;;;-148.88;100.00;74524.16;5034569;28;20104;-87
2022/05/24 04:21:06;;;;;;;46.63;31.00;;;;;;;-148.88;100.00;74530.25;5017162;28;20071;-86
2022/05/24 04:23:43;;;;;;;49.60;31.98;;;;;;;-148.88;100.00;74524.16;5034469;28;20021;-86
2022/05/24 04:26:08;;;;;;;44.75;30.30;;;;;;;-148.88;100.00;74520.09;5034756;28;20053;-85
2022/05/24 04:28:34;;;;;;;51.17;31.27;;;;;;;-148.88;100.00;74518.06;5034639;28;20057;-87
2022/05/24 04:31:05;;;;;;;46.03;30.17;;;;;;;-148.88;100.00;74518.06;5034432;28;20104;-86
2022/05/24 04:34:02;;;;;;;45.88;29.92;;;;;;;-148.88;100.00;74518.06;5034194;28;20021;-87
2022/05/24 04:36:31;;;;;;;46.90;30.00;;;;;;;-148.88;100.00;74518.06;5016240;28;20439;-84
2022/05/24 04:39:00;;;;;;;43.65;30.35;;;;;;;-148.88;100.00;74522.13;5016529;28;20025;-87
2022/05/24 04:44:18;;;;;;;41.20;26.77;;;;;;;-148.88;100.00;74507.91;5034406;28;20128;-86
2022/05/24 04:47:09;;;;;;;40.05;26.42;;;;;;;-148.88;100.00;74505.88;5016139;28;20029;-85
2022/05/24 04:49:39;;;;;;;40.92;26.90;;;;;;;-148.88;100.00;74520.09;5016577;28;20032;-86
2022/05/24 04:52:08;;;;;;;38.38;25.88;;;;;;;-148.88;100.00;74505.88;5034729;28;20025;-86
2022/05/24 04:54:40;;;;;;;37.15;26.08;;;;;;;-148.88;100.00;74507.91;5033071;28;20033;-86
2022/05/24 04:57:07;;;;;;;37.10;25.65;;;;;;;-148.88;100.00;74505.88;5034008;28;20013;-85
2022/05/24 04:59:36;;;;;;;40.38;28.15;;;;;;;-148.88;100.00;74514.00;5033835;28;20112;-86
2022/05/24 05:02:08;;;;;;;42.10;27.45;;;;;;;-148.88;100.00;74505.88;5016664;28;20025;-86
2022/05/24 05:04:42;;;;;;;39.80;26.63;;;;;;;-148.88;100.00;74501.81;5033921;28;20560;-87
2022/05/24 05:07:30;;;;;;;39.80;26.15;;;;;;;-148.88;100.00;74505.88;5016491;28;20025;-86
2022/05/24 05:10:04;;;;;;;38.90;26.48;;;;;;;-148.88;100.00;74497.78;5034359;28;20033;-86
2022/05/24 05:12:38;;;;;;;40.55;26.30;;;;;;;-148.88;100.00;74501.81;5017065;28;20033;-87
2022/05/24 05:15:05;;;;;;;38.15;26.35;;;;;;;-148.88;100.00;74505.88;5016398;28;20033;-92
2022/05/24 05:17:34;;;;;;;36.40;25.00;;;;;;;-148.88;100.00;74505.88;5033974;28;20089;-90
2022/05/24 05:20:11;;;;;;;35.75;25.30;;;;;;;-148.88;100.00;74507.91;5017413;28;20032;-92
2022/05/24 05:22:38;;;;;;;38.35;26.45;;;;;;;-148.88;100.00;74514.00;5017362;28;20055;-91
2022/05/24 05:25:05;;;;;;;36.08;25.15;;;;;;;-148.88;100.00;74514.00;5015774;28;20100;-91
2022/05/24 05:27:48;;;;;;;36.80;24.67;;;;;;;-148.88;100.00;74509.94;5016763;28;20026;-91
2022/05/24 05:33:05;;;;;;;36.20;24.15;;;;;;;-148.88;100.00;74511.97;5035617;28;20036;-90
2022/05/24 05:35:31;;;;;;;35.60;24.92;;;;;;;-148.88;100.00;74511.97;5016940;28;20029;-89
2022/05/24 05:37:56;;;;;;;33.40;22.88;;;;;;;-148.88;100.00;74509.94;5034220;28;20108;-90
2022/05/24 05:40:25;;;;;;;35.15;23.83;;;;;;;-148.88;100.00;74509.94;5017366;28;20040;-91
2022/05/24 05:42:50;;;;;;;29.45;20.83;;;;;;;-148.88;100.00;74511.97;5021392;28;20113;-88
2022/05/24 05:45:22;;;;;;;29.52;18.92;;;;;;;-148.88;98.41;74520.09;5019983;28;20056;-90
2022/05/24 05:47:48;;;;;;;29.23;18.55;;;;;;;-148.88;97.78;74505.88;5035843;28;20017;-89
2022/05/24 05:50:17;;;;;;;28.60;20.02;;;;;;;-148.88;99.44;74489.66;5034916;28;20025;-90
2022/05/24 05:52:43;;;;;;;31.45;20.48;;;;;;;-148.88;98.79;74493.72;5016636;28;20112;-88
2022/05/24 05:55:12;;;;;;;26.27;19.30;;;;;;;-148.88;99.12;74491.69;5016649;28;20075;-88
2022/05/24 05:57:38;;;;;;;29.25;20.90;;;;;;;-148.88;99.23;74485.59;5015811;28;20136;-89
2022/05/24 06:00:06;;;;;;;30.67;19.30;;;;;;;-148.88;99.76;74473.41;5034229;28;20030;-90
2022/05/24 06:02:37;;;;;;;24.27;16.65;;;;;;;-148.88;96.83;74485.59;5016318;28;20441;-90
2022/05/24 06:05:08;;;;;;;24.90;16.10;;;;;;;-148.88;95.70;74465.28;5016090;28;20116;-89
2022/05/24 06:07:33;;;;;;;21.63;14.88;;;;;;;-148.88;93.78;74469.34;5033548;28;20463;-87
2022/05/24 06:10:09;;;;;;;20.40;13.75;;;;;;;-148.88;91.81;74481.53;5015697;28;20023;-88
2022/05/24 06:12:40;;;;;;;18.40;13.07;;;;;;;-148.88;91.17;74477.47;5015777;28;20030;-87
2022/05/24 06:15:17;;;;;;;20.67;12.82;;;;;;;-148.88;91.09;74475.44;5015965;28;20067;-89
2022/05/24 06:17:50;;;;;;;16.55;12.48;;;;;;;-148.88;91.99;74465.28;5034147;28;20390;-89
2022/05/24 06:20:21;;;;;;;18.15;12.30;;;;;;;-148.88;90.13;74479.50;5037683;28;20025;-88
2022/05/24 06:22:52;;;;;;;17.08;11.20;;;;;;;-148.88;90.14;74483.56;5020098;28;20080;-90
2022/05/24 06:25:31;;;;;;;16.45;11.80;;;;;;;-148.88;90.71;74497.78;5036741;28;20025;-89
2022/05/24 06:28:02;;;;;;;14.80;10.35;;;;;;;-148.88;89.80;74516.03;5021047;28;20029;-88
2022/05/24 06:30:28;;;;;;;12.90;9.65;;;;;;;-148.88;89.21;74509.94;5018903;28;20116;-88
2022/05/24 06:32:54;;;;;;;15.02;9.27;;;;;;;-148.88;87.18;74538.38;5037104;28;20580;-89
2022/05/24 06:35:39;;;;;;;14.23;9.10;;;;;;;-148.88;86.18;74562.75;5019304;28;20119;-86
2022/05/24 06:38:05;;;;;;;14.57;9.80;;;;;;;-148.88;88.19;74576.97;5021261;28;20018;-87
2022/05/24 06:40:52;;;;;;;18.23;11.50;;;;;;;-148.88;87.58;74595.25;5040776;28;20387;-85
2022/05/24 06:43:25;;;;;;;19.52;12.45;;;;;;;-148.88;89.71;74605.38;5021759;28;20021;-86
2022/05/24 06:45:53;;;;;;;17.48;12.55;;;;;;;-148.88;92.35;74627.72;5022938;28;20030;-85
2022/05/24 06:48:29;;;;;;;18.92;13.05;;;;;;;-148.88;93.41;74643.97;5040393;28;20104;-86
2022/05/24 06:51:06;;;;;;;17.17;12.75;;;;;;;-148.88;93.93;74648.03;5041425;28;20475;-86
2022/05/24 06:53:56;;;;;;;20.02;14.77;;;;;;;-148.88;94.48;74660.22;5021201;28;20060;-87
2022/05/24 06:57:03;;;;;;;22.75;14.40;;;;;;;-148.88;95.06;74682.56;5019724;28;20059;-86
2022/05/24 07:02:26;;;;;;;17.92;12.73;;;;;;;-148.88;95.70;74749.56;5037610;28;20037;-89
2022/05/24 07:05:13;;;;;;;17.35;12.23;;;;;;;-148.88;97.32;74782.06;5035564;28;20029;-89
2022/05/24 07:07:39;;;;;;;19.70;12.15;;;;;;;-148.88;98.47;74786.13;5019056;28;20027;-87
2022/05/24 07:10:12;;;;;;;20.17;12.40;;;;;;;-148.88;98.57;74794.25;5018371;28;20025;-88
2022/05/24 07:12:42;;;;;;;19.27;13.73;;;;;;;-148.88;100.00;74820.63;5018964;28;20459;-88
2022/05/24 07:15:08;;;;;;;20.20;13.35;;;;;;;-148.88;100.00;74828.75;5018264;28;20033;-88
2022/05/24 07:17:33;;;;;;;22.58;12.70;;;;;;;-148.88;100.00;74855.16;5017564;28;20030;-86
2022/05/24 07:20:01;;;;;;;21.13;11.20;;;;;;;-148.88;100.00;74851.09;5018782;28;20036;-85
2022/05/24 07:22:26;;;;;;;19.92;12.50;;;;;;;-148.88;100.00;74859.22;5018478;28;20532;-87
2022/05/24 07:24:58;;;;;;;20.17;12.82;;;;;;;-148.88;100.00;74875.47;5019322;28;20025;-87
2022/05/24 07:27:23;;;;;;;20.58;12.90;;;;;;;-148.88;100.00;74883.59;5017103;28;20033;-86
2022/05/24 07:30:05;;;;;;;20.63;12.68;;;;;;;-148.88;100.00;74895.78;5018165;28;20078;-87
2022/05/24 07:32:31;;;;;;;23.77;13.60;;;;;;;-148.88;100.00;74912.03;5036603;28;20048;-86
2022/05/24 07:34:59;;;;;;;23.45;15.25;;;;;;;-148.88;100.00;74918.13;5036798;28;20109;-86
2022/05/24 07:37:24;;;;;;;23.15;15.70;;;;;;;-148.88;100.00;74924.22;5018436;28;20116;-86
2022/05/24 07:45:47;;;;;;;28.23;16.92;;;;;;;-148.88;100.00;74922.19;5018005;28;20041;-85
2022/05/24 07:48:04;;;;;;;27.83;18.63;;;;;;;-148.88;100.00;74936.41;5037342;28;19919;-86
2022/05/24 07:50:29;;;;;;;28.02;18.30;;;;;;;-148.88;100.00;74936.41;5020851;28;20060;-85
2022/05/24 07:52:54;;;;;;;30.92;20.02;;;;;;;-148.88;100.00;74940.47;5021103;28;20018;-85
2022/05/24 07:55:25;;;;;;;27.75;19.17;;;;;;;-148.88;100.00;74932.34;5038382;28;20432;-85
2022/05/24 07:57:51;;;;;;;33.00;19.70;;;;;;;-148.88;100.00;74932.34;5039124;28;20536;-85
2022/05/24 08:00:17;;;;;;;33.05;18.48;;;;;;;-148.88;100.00;74936.41;5019222;28;20100;-86
2022/05/24 08:02:42;;;;;;;28.10;17.10;;;;;;;-148.88;100.00;74928.28;5020968;28;20025;-85
2022/05/24 08:05:08;;;;;;;25.20;16.55;;;;;;;-148.88;100.00;74928.28;5040450;28;20164;-84
2022/05/24 08:07:34;;;;;;;26.50;16.92;;;;;;;-148.88;100.00;74914.06;5041897;28;20029;-85
2022/05/24 08:09:59;;;;;;;25.48;16.60;;;;;;;-148.88;100.00;74912.03;5040473;28;20030;-84
2022/05/24 08:12:24;;;;;;;30.30;18.70;;;;;;;-148.88;100.00;74912.03;5023456;28;20022;-85
2022/05/24 08:14:50;;;;;;;24.35;16.73;;;;;;;-148.88;100.00;74922.19;5020249;28;20025;-84
2022/05/24 08:17:15;;;;;;;26.30;16.67;;;;;;;-148.88;100.00;74924.22;5036523;28;20030;-85
2022/05/24 08:19:41;;;;;;;28.52;16.88;;;;;;;-148.88;100.00;74891.72;5019180;28;20026;-85
2022/05/24 08:22:07;;;;;;;25.60;16.73;;;;;;;-148.88;100.00;74889.69;5036533;28;20028;-85
2022/05/24 08:24:33;;;;;;;23.92;16.33;;;;;;;-148.88;100.00;74885.63;5017148;28;20116;-85
2022/05/24 08:26:59;;;;;;;23.73;16.08;;;;;;;-148.88;100.00;74895.78;5034912;28;20024;-84
2022/05/24 08:29:24;;;;;;;26.88;16.42;;;;;;;-148.88;100.00;74897.81;5017579;28;20021;-85
2022/05/24 08:31:55;;;;;;;27.75;16.40;;;;;;;-148.88;100.00;74899.84;5035144;28;20025;-85
2022/05/24 08:34:21;;;;;;;21.33;15.25;;;;;;;-148.88;100.00;74912.03;5017247;28;20026;-85
2022/05/24 08:36:50;;;;;;;23.00;14.65;;;;;;;-148.88;100.00;74924.22;5017089;28;20018;-86
2022/05/24 08:39:15;;;;;;;24.30;15.00;;;;;;;-148.88;100.00;74914.06;5017760;28;20378;-85
2022/05/24 08:42:13;;;;;;;24.42;16.65;;;;;;;-148.88;100.00;74912.03;5034244;28;20022;-85
2022/05/24 08:51:21;;;;;;;22.30;16.20;;;;;;;-148.88;100.00;74895.78;5034732;28;20035;-86
2022/05/24 08:53:27;;;;;;;26.40;17.15;;;;;;;-148.88;100.00;74871.41;5020634;28;20032;-87
2022/05/24 08:55:56;;;;;;;28.13;16.65;;;;;;;-148.88;100.00;74871.41;5016311;28;20032;-85
2022/05/24 08:58:40;;;;;;;25.52;17.45;;;;;;;-148.88;100.00;74857.19;5022870;28;20395;-87
2022/05/24 09:01:18;;;;;;;24.23;17.48;;;;;;;-148.88;100.00;74855.16;5016396;28;20116;-86
2022/05/24 09:03:45;;;;;;;26.17;16.67;;;;;;;-148.88;100.00;74847.03;5016054;28;20029;-86
2022/05/24 09:06:32;;;;;;;25.13;17.52;;;;;;;-148.88;100.00;74834.84;5033651;28;20394;-86
2022/05/24 09:09:31;;;;;;;25.25;16.42;;;;;;;-148.88;100.00;74826.72;5034546;28;20049;-86
2022/05/24 09:12:07;;;;;;;20.40;16.38;;;;;;;-148.88;100.00;74802.38;5016441;28;20036;-86
2022/05/24 09:14:35;;;;;;;20.27;15.68;;;;;;;-148.88;100.00;74782.06;5017152;28;20401;-86
2022/05/24 09:17:27;;;;;;;18.13;14.27;;;;;;;-148.88;100.00;74761.75;5017223;28;20017;-86
2022/05/24 09:19:52;;;;;;;18.65;14.82;;;;;;;-148.88;100.00;74749.56;5016664;28;20033;-87
2022/05/24 09:22:34;;;;;;;15.18;12.40;;;;;;;-148.88;98.42;74796.28;5015941;28;20029;-86
2022/05/24 09:25:11;;;;;;;19.70;13.48;;;;;;;-148.88;98.78;74798.31;5016200;28;20493;-87
2022/05/24 09:28:09;;;;;;;19.17;13.77;;;;;;;-148.88;100.00;74796.28;5033504;28;20040;-84
2022/05/24 09:30:45;;;;;;;16.58;11.75;;;;;;;-148.88;98.32;74802.38;5000439;28;20035;-86
2022/05/24 09:33:23;;;;;;;14.02;11.90;;;;;;;-148.88;98.60;74769.88;5015642;28;20072;-86
2022/05/24 09:35:51;;;;;;;15.23;11.68;;;;;;;-148.88;97.49;74765.81;5033187;28;20461;-85
2022/05/24 09:38:18;;;;;;;17.30;10.70;;;;;;;-148.88;98.07;74771.91;5015230;28;20142;-85
2022/05/24 09:40:49;;;;;;;13.52;11.48;;;;;;;-148.88;97.92;74765.81;5016046;28;20459;-87
2022/05/24 09:43:33;;;;;;;12.82;11.07;;;;;;;-148.88;95.89;74778.00;5016287;28;20029;-87
2022/05/24 09:46:24;;;;;;;12.38;10.38;;;;;;;-148.88;94.11;74721.13;5016395;28;20021;-86
2022/05/24 09:49:13;;;;;;;14.25;9.82;;;;;;;-148.88;92.90;74721.13;5016428;28;20037;-86
2022/05/24 09:51:42;;;;;;;11.30;9.38;;;;;;;-148.88;90.39;74786.13;5033745;28;20625;-87
2022/05/24 09:54:40;;;;;;;14.50;10.40;;;;;;;-148.88;90.88;74755.66;5037426;28;20025;-85
2022/05/24 09:57:13;;;;;;;14.07;9.48;;;;;;;-148.88;89.80;74739.41;5037356;28;20021;-86
2022/05/24 09:59:41;;;;;;;12.05;8.55;;;;;;;-148.88;87.67;74800.34;5037792;28;20490;-86
2022/05/24 10:02:30;;;;;;;11.23;8.10;;;;;;;-148.88;88.86;74743.47;5019364;28;20444;-86
2022/05/24 10:04:56;;;;;;;13.98;9.10;;;;;;;-148.88;89.02;74694.75;5019241;28;20394;-85
2022/05/24 10:07:25;;;;;;;9.45;7.47;;;;;;;-148.88;86.21;74688.66;5019422;28;20022;-87
2022/05/24 10:10:40;;;;;;;9.07;6.90;;;;;;;-148.88;84.57;74749.56;5019311;28;20059;-85
2022/05/24 10:13:14;;;;;;;8.98;6.68;;;;;;;-148.88;84.80;74676.47;4993628;28;20037;-86
2022/05/24 10:16:07;;;;;;;9.20;6.53;;;;;;;-148.88;85.60;74688.66;5019270;28;20068;-85
2022/05/24 10:18:45;;;;;;;8.20;6.50;;;;;;;-148.88;85.24;74694.75;5018978;28;20029;-86
2022/05/24 10:21:29;;;;;;;10.60;6.63;;;;;;;-148.88;85.09;74688.66;5018865;28;20581;-86
2022/05/24 10:24:19;;;;;;;11.88;6.65;;;;;;;-148.88;83.58;74660.22;5036447;28;20049;-86
2022/05/24 10:27:08;;;;;;;8.65;6.60;;;;;;;-148.88;81.52;74599.28;5037122;28;20049;-85
2022/05/24 10:29:47;;;;;;;6.75;5.95;;;;;;;-148.88;76.71;74627.72;5021752;28;20406;-86
2022/05/24 10:38:36;;;;;;;7.70;5.90;;;;;;;-148.88;78.74;74737.38;5037528;28;20029;-86
2022/05/24 10:41:14;;;;;;;7.43;6.18;;;;;;;-148.88;80.40;74761.75;5019007;28;20041;-85
2022/05/24 10:43:58;;;;;;;7.60;6.32;;;;;;;-148.88;79.62;74749.56;5019827;28;20033;-86
2022/05/24 10:46:57;;;;;;;9.05;6.32;;;;;;;-148.88;78.66;74737.38;5019226;28;20036;-84
2022/05/24 10:49:51;;;;;;;7.55;6.72;;;;;;;-148.88;78.08;74737.38;4996507;28;20037;-86
2022/05/24 10:52:43;;;;;;;8.10;6.43;;;;;;;-148.88;78.01;74767.84;5012802;28;20068;-86
2022/05/24 10:55:24;;;;;;;8.15;6.72;;;;;;;-148.88;79.65;74771.91;5019684;28;20490;-85
2022/05/24 10:58:13;;;;;;;9.10;6.90;;;;;;;-148.88;80.17;74775.97;5019789;28;20025;-85
2022/05/24 11:01:04;;;;;;;11.23;6.45;;;;;;;-148.88;79.93;74771.91;5020146;28;20061;-84
2022/05/24 11:03:48;;;;;;;10.15;6.38;;;;;;;-148.88;79.94;74737.38;5028398;28;20037;-85
2022/05/24 11:06:29;;;;;;;8.43;7.03;;;;;;;-148.88;80.20;74737.38;5019302;28;20052;-84
2022/05/24 11:09:05;;;;;;;7.70;5.82;;;;;;;-148.88;78.74;74723.16;5037354;28;20470;-83
2022/05/24 11:12:03;;;;;;;8.15;6.68;;;;;;;-148.88;76.34;74631.78;5019642;28;20031;-83
2022/05/24 11:14:53;;;;;;;7.88;5.90;;;;;;;-148.88;78.40;74603.34;5002583;28;20044;-85
2022/05/24 11:17:26;;;;;;;6.80;6.10;;;;;;;-148.88;74.68;74662.25;5035954;28;20024;-84
2022/05/24 11:20:04;;;;;;;8.25;5.70;;;;;;;-148.88;73.95;74717.06;5019209;28;20059;-84
2022/05/24 11:23:03;;;;;;;9.98;5.85;;;;;;;-148.88;74.62;74741.44;5018671;28;20033;-85
2022/05/24 11:25:46;;;;;;;9.02;6.30;;;;;;;-148.88;76.30;74749.56;5018287;28;20386;-84
2022/05/24 11:28:32;;;;;;;7.47;6.53;;;;;;;-148.88;78.08;74765.81;5036330;28;20087;-84
2022/05/24 11:31:22;;;;;;;8.90;6.28;;;;;;;-148.88;77.78;74715.03;5017865;28;20044;-83
2022/05/24 11:34:08;;;;;;;7.10;5.70;;;;;;;-148.88;75.21;74617.56;5018729;28;20079;-84
2022/05/24 11:36:40;;;;;;;8.85;6.00;;;;;;;-148.88;73.96;74574.94;5035266;28;20402;-84
2022/05/24 11:39:32;;;;;;;7.20;5.25;;;;;;;-148.88;73.78;74463.25;5017618;28;20406;-84
2022/05/24 11:42:33;;;;;;;6.05;5.45;;;;;;;-148.88;72.20;74396.25;5018593;28;20027;-84
2022/05/24 11:45:23;;;;;;;6.10;4.10;;;;;;;-148.88;67.66;74473.41;5018586;28;20362;-84
2022/05/24 11:48:26;;;;;;;6.25;4.20;;;;;;;-148.88;70.37;74509.94;5018185;28;20108;-84
2022/05/24 11:50:53;;;;;;;4.50;3.97;;;;;;;-148.88;68.48;74607.41;5018385;28;20029;-85
2022/05/24 11:54:01;;;;;;;5.10;3.08;;;;;;;-148.88;70.66;74599.28;5035269;28;20400;-84
2022/05/24 11:56:38;;;;;;;5.22;3.33;;;;;;;-148.88;69.94;74631.78;5020726;28;20029;-85
2022/05/24 11:59:11;;;;;;;5.03;2.90;;;;;;;-148.88;69.16;74656.16;5018306;28;20504;-83
2022/05/24 12:01:47;;;;;;;5.57;3.78;;;;;;;-148.88;71.48;74668.34;5017935;28;20475;-83
2022/05/24 12:10:31;;;;;;;6.43;3.30;;;;;;;-148.88;75.39;74660.22;5034905;28;20124;-84
2022/05/24 12:13:41;;;;;;;4.88;3.40;;;;;;;-148.88;71.42;74666.31;5017707;28;20441;-84
2022/05/24 12:16:38;;;;;;;5.82;3.13;;;;;;;-148.88;68.22;74603.34;5014900;28;20379;-85
2022/05/24 12:19:27;;;;;;;8.18;3.10;;;;;;;-148.88;67.85;74554.63;4991862;28;20037;-85